Vernon, Wisconsin
Current Conditions -  °F | °C
As of 12:15 AM on Monday 26 Jan 2015 (Local Time) from KUES Reporting Station
Clear Clear  
Wind Chill:   Ceiling: Unl
Heat Index: 12°   Visibility: 10mi
Dew Point: 10°   Wind: 7mph
Humidity: 92%   Direction: 280°W
Pressure: 30.02"   Gusts: NA
Location:  42.9962°N, 88.3115°W
Report Text: KUES 260615Z AUTO 28006KT 10SM CLR M11/M12 A3002 RMK AO2
Loading
Personal Weather Stations






























Interactive Weather Map New forecast layout! Learn more

10-Day Weather Forecast

Advertisements
Track Severe Weather on mobile